sensor_id;sensor_type;location;lat;lon;timestamp;P1;durP1;ratioP1;P2;durP2;ratioP2
52304;SDS011;38248;52.722;6.734;2022-10-15T00:32:25;269.02;;;43.28;;
52304;SDS011;38248;52.722;6.734;2022-10-15T01:09:46;266.23;;;41.85;;
52304;SDS011;38248;52.722;6.734;2022-10-15T01:12:18;261.75;;;41.63;;
52304;SDS011;38248;52.722;6.734;2022-10-15T01:22:32;332.10;;;43.30;;
52304;SDS011;38248;52.722;6.734;2022-10-15T01:39:37;222.45;;;39.10;;
52304;SDS011;38248;52.722;6.734;2022-10-15T01:53:37;242.25;;;38.63;;
52304;SDS011;38248;52.722;6.734;2022-10-15T01:59:41;150.20;;;38.67;;
52304;SDS011;38248;52.722;6.734;2022-10-15T02:13:29;140.65;;;36.30;;
52304;SDS011;38248;52.722;6.734;2022-10-15T02:30:13;112.47;;;36.25;;
52304;SDS011;38248;52.722;6.734;2022-10-15T02:39:50;97.15;;;36.38;;
52304;SDS011;38248;52.722;6.734;2022-10-15T02:42:34;98.35;;;36.22;;
52304;SDS011;38248;52.722;6.734;2022-10-15T02:49:51;86.10;;;34.50;;
52304;SDS011;38248;52.722;6.734;2022-10-15T02:56:16;85.25;;;33.78;;
52304;SDS011;38248;52.722;6.734;2022-10-15T02:59:43;86.13;;;35.15;;
52304;SDS011;38248;52.722;6.734;2022-10-15T03:12:21;76.75;;;32.65;;
52304;SDS011;38248;52.722;6.734;2022-10-15T03:14:53;89.15;;;35.53;;
52304;SDS011;38248;52.722;6.734;2022-10-15T03:17:40;84.65;;;32.97;;
52304;SDS011;38248;52.722;6.734;2022-10-15T03:21:11;90.55;;;35.38;;
52304;SDS011;38248;52.722;6.734;2022-10-15T03:23:43;90.28;;;34.55;;
52304;SDS011;38248;52.722;6.734;2022-10-15T03:26:29;81.95;;;33.55;;
52304;SDS011;38248;52.722;6.734;2022-10-15T03:29:08;88.03;;;35.33;;
52304;SDS011;38248;52.722;6.734;2022-10-15T03:38:23;73.05;;;31.45;;
52304;SDS011;38248;52.722;6.734;2022-10-15T03:51:31;75.55;;;33.05;;
52304;SDS011;38248;52.722;6.734;2022-10-15T03:57:42;69.32;;;31.75;;
52304;SDS011;38248;52.722;6.734;2022-10-15T04:00:32;66.10;;;31.50;;
52304;SDS011;38248;52.722;6.734;2022-10-15T04:03:04;75.80;;;32.28;;
52304;SDS011;38248;52.722;6.734;2022-10-15T04:09:11;75.07;;;35.10;;
52304;SDS011;38248;52.722;6.734;2022-10-15T04:12:25;77.23;;;33.17;;
52304;SDS011;38248;52.722;6.734;2022-10-15T04:14:53;76.43;;;34.22;;
52304;SDS011;38248;52.722;6.734;2022-10-15T04:25:20;84.63;;;36.22;;
52304;SDS011;38248;52.722;6.734;2022-10-15T04:28:59;78.85;;;35.45;;
52304;SDS011;38248;52.722;6.734;2022-10-15T04:31:42;91.15;;;36.50;;
52304;SDS011;38248;52.722;6.734;2022-10-15T04:43:52;88.25;;;37.85;;
52304;SDS011;38248;52.722;6.734;2022-10-15T04:46:26;92.07;;;38.95;;
52304;SDS011;38248;52.722;6.734;2022-10-15T04:48:51;91.35;;;38.45;;
52304;SDS011;38248;52.722;6.734;2022-10-15T04:51:25;94.75;;;40.28;;
52304;SDS011;38248;52.722;6.734;2022-10-15T04:56:29;89.72;;;37.25;;
52304;SDS011;38248;52.722;6.734;2022-10-15T05:10:39;88.95;;;37.47;;
52304;SDS011;38248;52.722;6.734;2022-10-15T05:16:40;90.93;;;39.33;;
52304;SDS011;38248;52.722;6.734;2022-10-15T05:19:09;101.90;;;39.42;;
52304;SDS011;38248;52.722;6.734;2022-10-15T05:21:44;97.30;;;39.60;;
52304;SDS011;38248;52.722;6.734;2022-10-15T05:24:51;97.50;;;40.22;;
52304;SDS011;38248;52.722;6.734;2022-10-15T05:33:17;93.63;;;38.78;;
52304;SDS011;38248;52.722;6.734;2022-10-15T05:35:51;96.38;;;38.67;;
52304;SDS011;38248;52.722;6.734;2022-10-15T05:38:40;91.40;;;37.95;;
52304;SDS011;38248;52.722;6.734;2022-10-15T05:52:41;98.53;;;38.47;;
52304;SDS011;38248;52.722;6.734;2022-10-15T05:55:25;100.32;;;39.33;;
52304;SDS011;38248;52.722;6.734;2022-10-15T06:01:52;103.35;;;38.97;;
52304;SDS011;38248;52.722;6.734;2022-10-15T06:04:21;95.75;;;40.30;;
52304;SDS011;38248;52.722;6.734;2022-10-15T06:06:50;99.18;;;38.80;;
52304;SDS011;38248;52.722;6.734;2022-10-15T06:09:52;88.05;;;38.70;;
52304;SDS011;38248;52.722;6.734;2022-10-15T06:12:30;101.57;;;39.42;;
52304;SDS011;38248;52.722;6.734;2022-10-15T06:19:05;96.45;;;38.35;;
52304;SDS011;38248;52.722;6.734;2022-10-15T06:21:45;88.55;;;36.72;;
52304;SDS011;38248;52.722;6.734;2022-10-15T06:24:13;93.72;;;37.25;;
52304;SDS011;38248;52.722;6.734;2022-10-15T06:26:51;89.20;;;37.53;;
52304;SDS011;38248;52.722;6.734;2022-10-15T06:29:42;96.28;;;39.00;;
52304;SDS011;38248;52.722;6.734;2022-10-15T06:35:46;90.05;;;38.03;;
52304;SDS011;38248;52.722;6.734;2022-10-15T06:38:15;86.55;;;39.97;;
52304;SDS011;38248;52.722;6.734;2022-10-15T06:40:42;89.82;;;38.83;;
52304;SDS011;38248;52.722;6.734;2022-10-15T06:43:10;85.97;;;37.30;;
52304;SDS011;38248;52.722;6.734;2022-10-15T06:45:37;83.90;;;37.55;;
52304;SDS011;38248;52.722;6.734;2022-10-15T06:48:25;95.43;;;39.83;;
52304;SDS011;38248;52.722;6.734;2022-10-15T06:50:56;79.18;;;36.83;;
52304;SDS011;38248;52.722;6.734;2022-10-15T06:55:58;86.93;;;40.00;;
52304;SDS011;38248;52.722;6.734;2022-10-15T07:02:02;79.03;;;38.70;;
52304;SDS011;38248;52.722;6.734;2022-10-15T07:08:36;74.82;;;39.03;;
52304;SDS011;38248;52.722;6.734;2022-10-15T07:11:22;77.78;;;39.40;;
52304;SDS011;38248;52.722;6.734;2022-10-15T07:17:15;76.15;;;39.00;;
52304;SDS011;38248;52.722;6.734;2022-10-15T07:20:06;77.20;;;39.78;;
52304;SDS011;38248;52.722;6.734;2022-10-15T07:26:10;79.32;;;39.67;;
52304;SDS011;38248;52.722;6.734;2022-10-15T07:28:36;73.05;;;39.00;;
52304;SDS011;38248;52.722;6.734;2022-10-15T07:31:06;84.40;;;42.10;;
52304;SDS011;38248;52.722;6.734;2022-10-15T07:33:32;76.53;;;40.10;;
52304;SDS011;38248;52.722;6.734;2022-10-15T07:36:06;76.93;;;40.67;;
52304;SDS011;38248;52.722;6.734;2022-10-15T07:38:34;77.88;;;42.90;;
52304;SDS011;38248;52.722;6.734;2022-10-15T07:41:09;73.03;;;41.00;;
52304;SDS011;38248;52.722;6.734;2022-10-15T07:43:50;76.65;;;40.05;;
52304;SDS011;38248;52.722;6.734;2022-10-15T07:46:18;70.97;;;39.83;;
52304;SDS011;38248;52.722;6.734;2022-10-15T07:48:58;68.80;;;39.42;;
52304;SDS011;38248;52.722;6.734;2022-10-15T07:51:26;75.10;;;41.38;;
52304;SDS011;38248;52.722;6.734;2022-10-15T07:54:13;80.35;;;41.97;;
52304;SDS011;38248;52.722;6.734;2022-10-15T07:56:39;68.50;;;39.25;;
52304;SDS011;38248;52.722;6.734;2022-10-15T08:04:59;64.80;;;39.35;;
52304;SDS011;38248;52.722;6.734;2022-10-15T08:07:46;74.72;;;40.97;;
52304;SDS011;38248;52.722;6.734;2022-10-15T08:10:43;67.13;;;39.72;;
52304;SDS011;38248;52.722;6.734;2022-10-15T08:13:09;67.30;;;38.35;;
52304;SDS011;38248;52.722;6.734;2022-10-15T08:16:15;65.05;;;39.50;;
52304;SDS011;38248;52.722;6.734;2022-10-15T08:31:43;67.22;;;41.10;;
52304;SDS011;38248;52.722;6.734;2022-10-15T08:34:19;65.63;;;39.42;;
52304;SDS011;38248;52.722;6.734;2022-10-15T08:36:44;62.60;;;38.35;;
52304;SDS011;38248;52.722;6.734;2022-10-15T08:39:34;66.75;;;37.25;;
52304;SDS011;38248;52.722;6.734;2022-10-15T08:56:34;58.00;;;34.28;;
52304;SDS011;38248;52.722;6.734;2022-10-15T09:17:21;69.82;;;35.25;;
52304;SDS011;38248;52.722;6.734;2022-10-15T09:23:21;71.28;;;36.92;;
52304;SDS011;38248;52.722;6.734;2022-10-15T09:26:22;72.43;;;35.22;;
52304;SDS011;38248;52.722;6.734;2022-10-15T09:29:23;67.05;;;34.00;;
52304;SDS011;38248;52.722;6.734;2022-10-15T09:32:34;61.28;;;33.55;;
52304;SDS011;38248;52.722;6.734;2022-10-15T09:35:19;59.03;;;31.23;;
52304;SDS011;38248;52.722;6.734;2022-10-15T09:44:37;57.78;;;31.23;;
52304;SDS011;38248;52.722;6.734;2022-10-15T09:59:24;51.38;;;28.73;;
52304;SDS011;38248;52.722;6.734;2022-10-15T10:04:56;52.60;;;28.13;;
52304;SDS011;38248;52.722;6.734;2022-10-15T10:10:53;50.55;;;27.80;;
52304;SDS011;38248;52.722;6.734;2022-10-15T10:26:39;45.95;;;26.17;;
52304;SDS011;38248;52.722;6.734;2022-10-15T10:29:57;42.95;;;25.38;;
52304;SDS011;38248;52.722;6.734;2022-10-15T10:33:21;36.92;;;23.75;;
52304;SDS011;38248;52.722;6.734;2022-10-15T10:43:28;33.58;;;22.48;;
52304;SDS011;38248;52.722;6.734;2022-10-15T10:56:20;25.17;;;19.73;;
52304;SDS011;38248;52.722;6.734;2022-10-15T10:59:55;29.33;;;20.27;;
52304;SDS011;38248;52.722;6.734;2022-10-15T11:02:28;25.52;;;19.30;;
52304;SDS011;38248;52.722;6.734;2022-10-15T11:08:46;29.33;;;19.55;;
52304;SDS011;38248;52.722;6.734;2022-10-15T11:56:00;21.50;;;16.08;;
52304;SDS011;38248;52.722;6.734;2022-10-15T12:02:13;22.10;;;15.80;;
52304;SDS011;38248;52.722;6.734;2022-10-15T12:13:55;23.15;;;17.50;;
52304;SDS011;38248;52.722;6.734;2022-10-15T12:19:49;22.48;;;17.48;;
52304;SDS011;38248;52.722;6.734;2022-10-15T12:30:10;24.60;;;17.55;;
52304;SDS011;38248;52.722;6.734;2022-10-15T12:33:20;22.52;;;16.92;;
52304;SDS011;38248;52.722;6.734;2022-10-15T12:35:56;25.35;;;17.67;;
52304;SDS011;38248;52.722;6.734;2022-10-15T12:42:37;25.10;;;17.30;;
52304;SDS011;38248;52.722;6.734;2022-10-15T12:45:36;26.27;;;17.83;;
52304;SDS011;38248;52.722;6.734;2022-10-15T12:50:33;25.08;;;16.90;;
52304;SDS011;38248;52.722;6.734;2022-10-15T13:05:36;19.73;;;15.13;;
52304;SDS011;38248;52.722;6.734;2022-10-15T13:08:14;22.43;;;15.93;;
52304;SDS011;38248;52.722;6.734;2022-10-15T13:11:00;19.00;;;14.70;;
52304;SDS011;38248;52.722;6.734;2022-10-15T13:13:27;19.98;;;15.07;;
52304;SDS011;38248;52.722;6.734;2022-10-15T13:16:20;18.70;;;14.40;;
52304;SDS011;38248;52.722;6.734;2022-10-15T13:18:58;15.70;;;13.15;;
52304;SDS011;38248;52.722;6.734;2022-10-15T13:21:45;16.58;;;14.02;;
52304;SDS011;38248;52.722;6.734;2022-10-15T13:24:19;18.98;;;14.52;;
52304;SDS011;38248;52.722;6.734;2022-10-15T13:32:50;23.77;;;18.65;;
52304;SDS011;38248;52.722;6.734;2022-10-15T13:35:38;16.27;;;12.95;;
52304;SDS011;38248;52.722;6.734;2022-10-15T13:38:37;14.20;;;12.60;;
52304;SDS011;38248;52.722;6.734;2022-10-15T13:41:28;15.85;;;12.82;;
52304;SDS011;38248;52.722;6.734;2022-10-15T13:44:16;15.27;;;12.77;;
52304;SDS011;38248;52.722;6.734;2022-10-15T13:47:27;12.55;;;11.23;;
52304;SDS011;38248;52.722;6.734;2022-10-15T13:58:45;11.38;;;10.35;;
52304;SDS011;38248;52.722;6.734;2022-10-15T14:01:21;10.02;;;9.02;;
52304;SDS011;38248;52.722;6.734;2022-10-15T14:04:13;10.80;;;9.75;;
52304;SDS011;38248;52.722;6.734;2022-10-15T14:07:29;9.25;;;8.45;;
52304;SDS011;38248;52.722;6.734;2022-10-15T14:09:53;9.18;;;8.35;;
52304;SDS011;38248;52.722;6.734;2022-10-15T14:12:37;8.23;;;7.43;;
52304;SDS011;38248;52.722;6.734;2022-10-15T14:18:43;6.18;;;5.68;;
52304;SDS011;38248;52.722;6.734;2022-10-15T14:25:19;7.28;;;6.57;;
52304;SDS011;38248;52.722;6.734;2022-10-15T14:48:20;5.53;;;5.03;;
52304;SDS011;38248;52.722;6.734;2022-10-15T14:51:01;6.03;;;5.05;;
52304;SDS011;38248;52.722;6.734;2022-10-15T14:53:39;5.20;;;4.70;;
52304;SDS011;38248;52.722;6.734;2022-10-15T14:56:44;5.25;;;4.60;;
52304;SDS011;38248;52.722;6.734;2022-10-15T14:59:13;4.95;;;4.45;;
52304;SDS011;38248;52.722;6.734;2022-10-15T15:04:43;6.05;;;4.38;;
52304;SDS011;38248;52.722;6.734;2022-10-15T15:07:11;3.83;;;3.42;;
52304;SDS011;38248;52.722;6.734;2022-10-15T15:09:55;6.97;;;3.28;;
52304;SDS011;38248;52.722;6.734;2022-10-15T15:12:22;3.53;;;3.10;;
52304;SDS011;38248;52.722;6.734;2022-10-15T15:14:52;6.90;;;3.65;;
52304;SDS011;38248;52.722;6.734;2022-10-15T15:17:27;5.55;;;3.75;;
52304;SDS011;38248;52.722;6.734;2022-10-15T15:19:55;3.97;;;3.50;;
52304;SDS011;38248;52.722;6.734;2022-10-15T15:22:26;4.10;;;3.70;;
52304;SDS011;38248;52.722;6.734;2022-10-15T15:24:54;4.25;;;3.40;;
52304;SDS011;38248;52.722;6.734;2022-10-15T15:27:31;3.60;;;3.30;;
52304;SDS011;38248;52.722;6.734;2022-10-15T15:30:02;3.17;;;2.88;;
52304;SDS011;38248;52.722;6.734;2022-10-15T15:32:31;4.38;;;3.05;;
52304;SDS011;38248;52.722;6.734;2022-10-15T15:34:56;12.40;;;7.78;;
52304;SDS011;38248;52.722;6.734;2022-10-15T15:37:23;29.65;;;18.27;;
52304;SDS011;38248;52.722;6.734;2022-10-15T15:39:50;29.15;;;16.60;;
52304;SDS011;38248;52.722;6.734;2022-10-15T15:42:22;14.57;;;10.02;;
52304;SDS011;38248;52.722;6.734;2022-10-15T15:44:48;6.63;;;5.15;;
52304;SDS011;38248;52.722;6.734;2022-10-15T15:47:14;5.43;;;4.70;;
52304;SDS011;38248;52.722;6.734;2022-10-15T15:49:40;7.15;;;4.53;;
52304;SDS011;38248;52.722;6.734;2022-10-15T15:52:08;5.03;;;4.18;;
52304;SDS011;38248;52.722;6.734;2022-10-15T15:54:38;7.30;;;5.82;;
52304;SDS011;38248;52.722;6.734;2022-10-15T15:57:04;7.45;;;5.57;;
52304;SDS011;38248;52.722;6.734;2022-10-15T16:02:14;5.45;;;4.60;;
52304;SDS011;38248;52.722;6.734;2022-10-15T16:04:40;6.82;;;5.13;;
52304;SDS011;38248;52.722;6.734;2022-10-15T16:07:06;8.52;;;7.70;;
52304;SDS011;38248;52.722;6.734;2022-10-15T16:09:31;6.40;;;5.80;;
52304;SDS011;38248;52.722;6.734;2022-10-15T16:11:57;6.05;;;5.45;;
52304;SDS011;38248;52.722;6.734;2022-10-15T16:14:30;7.30;;;4.75;;
52304;SDS011;38248;52.722;6.734;2022-10-15T16:16:56;15.82;;;14.32;;
52304;SDS011;38248;52.722;6.734;2022-10-15T16:19:22;12.30;;;8.45;;
52304;SDS011;38248;52.722;6.734;2022-10-15T16:21:48;8.45;;;5.30;;
52304;SDS011;38248;52.722;6.734;2022-10-15T16:24:14;7.78;;;6.13;;
52304;SDS011;38248;52.722;6.734;2022-10-15T16:26:40;6.38;;;5.70;;
52304;SDS011;38248;52.722;6.734;2022-10-15T16:29:06;7.70;;;5.95;;
52304;SDS011;38248;52.722;6.734;2022-10-15T16:31:31;6.63;;;5.47;;
52304;SDS011;38248;52.722;6.734;2022-10-15T16:34:00;7.68;;;5.78;;
52304;SDS011;38248;52.722;6.734;2022-10-15T16:36:28;7.78;;;6.38;;
52304;SDS011;38248;52.722;6.734;2022-10-15T16:38:54;7.03;;;6.32;;
52304;SDS011;38248;52.722;6.734;2022-10-15T16:41:19;8.18;;;6.70;;
52304;SDS011;38248;52.722;6.734;2022-10-15T16:43:45;7.18;;;6.28;;
52304;SDS011;38248;52.722;6.734;2022-10-15T16:46:12;8.70;;;6.72;;
52304;SDS011;38248;52.722;6.734;2022-10-15T16:48:39;7.78;;;7.03;;
52304;SDS011;38248;52.722;6.734;2022-10-15T16:51:06;7.85;;;6.10;;
52304;SDS011;38248;52.722;6.734;2022-10-15T16:53:35;15.05;;;7.30;;
52304;SDS011;38248;52.722;6.734;2022-10-15T16:56:05;7.15;;;6.28;;
52304;SDS011;38248;52.722;6.734;2022-10-15T16:58:32;8.90;;;7.05;;
52304;SDS011;38248;52.722;6.734;2022-10-15T17:01:03;9.50;;;7.00;;
52304;SDS011;38248;52.722;6.734;2022-10-15T17:06:15;10.15;;;7.68;;
52304;SDS011;38248;52.722;6.734;2022-10-15T17:08:52;8.77;;;7.07;;
52304;SDS011;38248;52.722;6.734;2022-10-15T17:11:20;12.40;;;9.93;;
52304;SDS011;38248;52.722;6.734;2022-10-15T17:13:49;10.43;;;7.70;;
52304;SDS011;38248;52.722;6.734;2022-10-15T17:16:21;10.10;;;7.60;;
52304;SDS011;38248;52.722;6.734;2022-10-15T17:18:48;9.05;;;7.65;;
52304;SDS011;38248;52.722;6.734;2022-10-15T17:21:16;11.48;;;9.00;;
52304;SDS011;38248;52.722;6.734;2022-10-15T17:23:50;9.45;;;7.22;;
52304;SDS011;38248;52.722;6.734;2022-10-15T17:26:21;8.02;;;7.05;;
52304;SDS011;38248;52.722;6.734;2022-10-15T17:28:51;9.55;;;6.85;;
52304;SDS011;38248;52.722;6.734;2022-10-15T17:31:19;9.60;;;7.03;;
52304;SDS011;38248;52.722;6.734;2022-10-15T17:33:46;7.82;;;6.35;;
52304;SDS011;38248;52.722;6.734;2022-10-15T17:36:16;7.18;;;5.70;;
52304;SDS011;38248;52.722;6.734;2022-10-15T17:41:28;8.20;;;5.70;;
52304;SDS011;38248;52.722;6.734;2022-10-15T17:43:55;8.70;;;5.43;;
52304;SDS011;38248;52.722;6.734;2022-10-15T17:46:25;6.75;;;5.05;;
52304;SDS011;38248;52.722;6.734;2022-10-15T17:48:53;8.38;;;5.78;;
52304;SDS011;38248;52.722;6.734;2022-10-15T17:51:23;8.95;;;5.55;;
52304;SDS011;38248;52.722;6.734;2022-10-15T17:53:51;6.72;;;5.57;;
52304;SDS011;38248;52.722;6.734;2022-10-15T17:56:18;9.02;;;5.88;;
52304;SDS011;38248;52.722;6.734;2022-10-15T17:58:48;8.15;;;6.35;;
52304;SDS011;38248;52.722;6.734;2022-10-15T18:01:15;9.32;;;6.32;;
52304;SDS011;38248;52.722;6.734;2022-10-15T18:03:50;10.65;;;7.53;;
52304;SDS011;38248;52.722;6.734;2022-10-15T18:06:17;9.88;;;7.07;;
52304;SDS011;38248;52.722;6.734;2022-10-15T18:08:45;11.32;;;7.43;;
52304;SDS011;38248;52.722;6.734;2022-10-15T18:11:18;9.85;;;7.05;;
52304;SDS011;38248;52.722;6.734;2022-10-15T18:13:47;9.40;;;6.72;;
52304;SDS011;38248;52.722;6.734;2022-10-15T18:16:13;8.40;;;7.00;;
52304;SDS011;38248;52.722;6.734;2022-10-15T18:18:41;7.32;;;6.43;;
52304;SDS011;38248;52.722;6.734;2022-10-15T18:21:14;8.60;;;6.80;;
52304;SDS011;38248;52.722;6.734;2022-10-15T18:23:44;7.22;;;6.20;;
52304;SDS011;38248;52.722;6.734;2022-10-15T18:26:14;6.93;;;5.55;;
52304;SDS011;38248;52.722;6.734;2022-10-15T18:28:43;8.05;;;4.97;;
52304;SDS011;38248;52.722;6.734;2022-10-15T18:31:10;6.38;;;5.22;;
52304;SDS011;38248;52.722;6.734;2022-10-15T18:33:38;7.47;;;4.97;;
52304;SDS011;38248;52.722;6.734;2022-10-15T18:36:10;6.72;;;5.43;;
52304;SDS011;38248;52.722;6.734;2022-10-15T18:38:40;9.93;;;6.20;;
52304;SDS011;38248;52.722;6.734;2022-10-15T18:41:14;7.85;;;6.20;;
52304;SDS011;38248;52.722;6.734;2022-10-15T18:44:09;7.88;;;5.10;;
52304;SDS011;38248;52.722;6.734;2022-10-15T18:47:39;7.50;;;5.35;;
52304;SDS011;38248;52.722;6.734;2022-10-15T18:50:05;6.18;;;5.10;;
52304;SDS011;38248;52.722;6.734;2022-10-15T18:52:31;8.85;;;6.30;;
52304;SDS011;38248;52.722;6.734;2022-10-15T18:57:49;7.00;;;5.57;;
52304;SDS011;38248;52.722;6.734;2022-10-15T19:00:17;7.07;;;6.05;;
52304;SDS011;38248;52.722;6.734;2022-10-15T19:02:46;7.93;;;5.55;;
52304;SDS011;38248;52.722;6.734;2022-10-15T19:08:34;7.35;;;4.93;;
52304;SDS011;38248;52.722;6.734;2022-10-15T19:11:17;8.25;;;6.60;;
52304;SDS011;38248;52.722;6.734;2022-10-15T19:14:16;10.07;;;5.53;;
52304;SDS011;38248;52.722;6.734;2022-10-15T19:17:12;6.53;;;4.80;;
52304;SDS011;38248;52.722;6.734;2022-10-15T19:19:40;15.30;;;7.13;;
52304;SDS011;38248;52.722;6.734;2022-10-15T19:22:38;6.35;;;4.30;;
52304;SDS011;38248;52.722;6.734;2022-10-15T19:25:09;6.07;;;4.55;;
52304;SDS011;38248;52.722;6.734;2022-10-15T19:27:49;10.73;;;6.05;;
52304;SDS011;38248;52.722;6.734;2022-10-15T19:34:02;6.95;;;4.90;;
52304;SDS011;38248;52.722;6.734;2022-10-15T19:40:13;7.47;;;4.65;;
52304;SDS011;38248;52.722;6.734;2022-10-15T19:42:50;8.05;;;4.93;;
52304;SDS011;38248;52.722;6.734;2022-10-15T19:57:23;7.50;;;4.75;;
52304;SDS011;38248;52.722;6.734;2022-10-15T19:59:56;6.65;;;4.32;;
52304;SDS011;38248;52.722;6.734;2022-10-15T20:02:52;7.22;;;4.22;;
52304;SDS011;38248;52.722;6.734;2022-10-15T20:08:33;7.20;;;4.63;;
52304;SDS011;38248;52.722;6.734;2022-10-15T20:11:45;6.50;;;3.92;;
52304;SDS011;38248;52.722;6.734;2022-10-15T20:17:59;9.70;;;3.92;;
52304;SDS011;38248;52.722;6.734;2022-10-15T20:20:33;7.53;;;3.08;;
52304;SDS011;38248;52.722;6.734;2022-10-15T20:23:22;7.07;;;3.55;;
52304;SDS011;38248;52.722;6.734;2022-10-15T20:26:30;4.53;;;3.05;;
52304;SDS011;38248;52.722;6.734;2022-10-15T20:29:09;5.85;;;3.22;;
52304;SDS011;38248;52.722;6.734;2022-10-15T20:32:34;4.28;;;2.60;;
52304;SDS011;38248;52.722;6.734;2022-10-15T20:35:55;8.18;;;2.97;;
52304;SDS011;38248;52.722;6.734;2022-10-15T20:38:55;6.05;;;2.65;;
52304;SDS011;38248;52.722;6.734;2022-10-15T20:45:14;7.40;;;2.70;;
52304;SDS011;38248;52.722;6.734;2022-10-15T20:48:08;3.80;;;2.17;;
52304;SDS011;38248;52.722;6.734;2022-10-15T21:04:54;6.68;;;2.30;;
52304;SDS011;38248;52.722;6.734;2022-10-15T21:08:00;6.70;;;2.50;;
52304;SDS011;38248;52.722;6.734;2022-10-15T21:14:00;5.75;;;2.60;;
52304;SDS011;38248;52.722;6.734;2022-10-15T21:17:12;3.95;;;2.17;;
52304;SDS011;38248;52.722;6.734;2022-10-15T21:20:01;3.63;;;2.05;;
52304;SDS011;38248;52.722;6.734;2022-10-15T21:22:36;7.53;;;2.47;;
52304;SDS011;38248;52.722;6.734;2022-10-15T21:28:55;3.72;;;1.70;;
52304;SDS011;38248;52.722;6.734;2022-10-15T21:31:31;6.20;;;2.30;;
52304;SDS011;38248;52.722;6.734;2022-10-15T21:34:23;4.35;;;2.20;;
52304;SDS011;38248;52.722;6.734;2022-10-15T21:36:54;4.22;;;1.80;;
52304;SDS011;38248;52.722;6.734;2022-10-15T21:45:29;3.33;;;1.92;;
52304;SDS011;38248;52.722;6.734;2022-10-15T21:51:33;5.88;;;1.60;;
52304;SDS011;38248;52.722;6.734;2022-10-15T21:54:03;4.70;;;2.58;;
52304;SDS011;38248;52.722;6.734;2022-10-15T22:06:14;5.47;;;1.73;;
52304;SDS011;38248;52.722;6.734;2022-10-15T22:08:57;5.68;;;1.55;;
52304;SDS011;38248;52.722;6.734;2022-10-15T22:11:30;5.90;;;2.20;;
52304;SDS011;38248;52.722;6.734;2022-10-15T22:14:19;5.05;;;1.65;;
52304;SDS011;38248;52.722;6.734;2022-10-15T22:16:50;4.20;;;2.00;;
52304;SDS011;38248;52.722;6.734;2022-10-15T22:19:24;2.88;;;1.60;;
52304;SDS011;38248;52.722;6.734;2022-10-15T22:22:00;5.22;;;1.90;;
52304;SDS011;38248;52.722;6.734;2022-10-15T22:25:08;6.13;;;1.90;;
52304;SDS011;38248;52.722;6.734;2022-10-15T22:28:00;7.05;;;1.98;;
52304;SDS011;38248;52.722;6.734;2022-10-15T22:31:14;6.38;;;2.33;;
52304;SDS011;38248;52.722;6.734;2022-10-15T22:33:44;4.32;;;2.10;;
52304;SDS011;38248;52.722;6.734;2022-10-15T22:36:21;4.43;;;2.05;;
52304;SDS011;38248;52.722;6.734;2022-10-15T22:48:02;3.30;;;1.80;;
52304;SDS011;38248;52.722;6.734;2022-10-15T22:50:53;7.88;;;1.92;;
52304;SDS011;38248;52.722;6.734;2022-10-15T22:53:26;3.80;;;1.95;;
52304;SDS011;38248;52.722;6.734;2022-10-15T22:56:10;7.55;;;2.05;;
52304;SDS011;38248;52.722;6.734;2022-10-15T22:59:36;8.65;;;1.70;;
52304;SDS011;38248;52.722;6.734;2022-10-15T23:02:31;5.32;;;1.50;;
52304;SDS011;38248;52.722;6.734;2022-10-15T23:12:11;4.07;;;1.40;;
52304;SDS011;38248;52.722;6.734;2022-10-15T23:19:15;1.95;;;1.25;;
52304;SDS011;38248;52.722;6.734;2022-10-15T23:22:02;4.78;;;1.45;;
52304;SDS011;38248;52.722;6.734;2022-10-15T23:24:43;3.75;;;1.63;;
52304;SDS011;38248;52.722;6.734;2022-10-15T23:27:22;5.82;;;1.60;;
52304;SDS011;38248;52.722;6.734;2022-10-15T23:30:24;5.40;;;1.50;;
52304;SDS011;38248;52.722;6.734;2022-10-15T23:32:50;8.30;;;2.65;;
52304;SDS011;38248;52.722;6.734;2022-10-15T23:38:47;6.80;;;1.67;;
52304;SDS011;38248;52.722;6.734;2022-10-15T23:44:36;3.90;;;1.50;;
52304;SDS011;38248;52.722;6.734;2022-10-15T23:47:09;3.78;;;1.30;;
52304;SDS011;38248;52.722;6.734;2022-10-15T23:52:30;5.18;;;1.52;;
52304;SDS011;38248;52.722;6.734;2022-10-15T23:55:02;4.60;;;1.55;;
